createdAt,value
2023-02-13T00:00:19.656Z,24.47
2023-02-13T00:04:29.213Z,24.93
2023-02-13T00:08:40.992Z,25.17
2023-02-13T00:12:50.421Z,25.73
2023-02-13T00:17:01.300Z,24.10
2023-02-13T00:21:12.284Z,24.63
2023-02-13T00:25:21.770Z,25.67
2023-02-13T00:29:30.904Z,23.63
2023-02-13T00:33:42.340Z,24.83
2023-02-13T00:37:52.095Z,25.33
2023-02-13T00:42:01.296Z,24.90
2023-02-13T00:46:10.991Z,23.73
2023-02-13T00:50:21.968Z,26.37
2023-02-13T00:54:31.172Z,24.50
2023-02-13T00:58:40.516Z,23.57
2023-02-13T01:02:49.894Z,24.90
2023-02-13T01:07:00.693Z,23.13
2023-02-13T01:11:10.123Z,31.63
2023-02-13T01:15:19.625Z,27.37
2023-02-13T01:19:29.014Z,26.57
2023-02-13T01:23:41.740Z,26.47
2023-02-13T01:27:51.072Z,25.83
2023-02-13T01:32:00.663Z,26.33
2023-02-13T01:36:12.128Z,26.23
2023-02-13T01:40:23.122Z,25.93
2023-02-13T01:44:50.348Z,25.17
2023-02-13T01:49:05.258Z,25.23
2023-02-13T01:53:18.544Z,25.23
2023-02-13T01:57:33.549Z,26.20
2023-02-13T02:01:43.445Z,24.73
2023-02-13T02:05:53.882Z,25.30
2023-02-13T02:10:07.857Z,24.60
2023-02-13T02:14:18.714Z,25.40
2023-02-13T02:18:27.988Z,26.17
2023-02-13T02:23:09.996Z,25.03
2023-02-13T02:27:54.929Z,27.20
2023-02-13T02:32:30.102Z,28.37
2023-02-13T02:36:53.300Z,27.83
2023-02-13T02:41:12.196Z,26.77
2023-02-13T02:45:30.852Z,25.93
2023-02-13T02:50:02.339Z,28.33
2023-02-13T02:54:34.454Z,27.60
2023-02-13T02:59:05.956Z,25.10
2023-02-13T03:03:37.012Z,26.30
2023-02-13T03:07:47.702Z,27.33
2023-02-13T03:12:15.259Z,26.27
2023-02-13T03:16:44.486Z,27.93
2023-02-13T03:21:25.155Z,26.97
2023-02-13T03:25:45.842Z,27.13
2023-02-13T03:30:12.046Z,26.93
2023-02-13T03:34:25.198Z,25.47
2023-02-13T03:38:42.723Z,26.53
2023-02-13T03:42:57.334Z,27.90
2023-02-13T03:47:08.589Z,27.93
2023-02-13T03:51:23.840Z,26.93
2023-02-13T03:55:54.143Z,27.20
2023-02-13T04:00:07.201Z,26.77
2023-02-13T04:04:21.112Z,26.73
2023-02-13T04:08:30.696Z,26.43
2023-02-13T04:12:43.515Z,29.20
2023-02-13T04:16:58.363Z,27.67
2023-02-13T04:21:09.135Z,26.60
2023-02-13T04:25:20.275Z,28.30
2023-02-13T04:29:29.520Z,27.53
2023-02-13T04:33:40.175Z,26.73
2023-02-13T04:37:49.449Z,28.60
2023-02-13T04:41:58.608Z,29.77
2023-02-13T04:46:08.071Z,27.67
2023-02-13T04:50:19.208Z,29.57
2023-02-13T04:54:28.386Z,29.17
2023-02-13T04:58:37.567Z,28.03
2023-02-13T05:02:46.829Z,30.17
2023-02-13T05:06:57.524Z,28.93
2023-02-13T05:11:06.939Z,30.00
2023-02-13T05:15:16.253Z,30.10
2023-02-13T05:19:25.493Z,33.13
2023-02-13T05:23:36.334Z,31.33
2023-02-13T05:27:45.485Z,31.37
2023-02-13T05:31:56.444Z,30.60
2023-02-13T05:36:06.107Z,29.17
2023-02-13T05:40:17.626Z,28.57
2023-02-13T05:44:26.725Z,31.97
2023-02-13T05:48:36.052Z,31.33
2023-02-13T05:52:45.213Z,29.47
2023-02-13T05:56:55.899Z,32.07
2023-02-13T06:01:05.921Z,30.23
2023-02-13T06:05:15.114Z,30.40
2023-02-13T06:09:24.395Z,26.27
2023-02-13T06:13:35.034Z,26.53
2023-02-13T06:17:44.331Z,30.40
2023-02-13T06:21:53.618Z,28.13
2023-02-13T06:26:06.043Z,30.10
2023-02-13T06:30:18.627Z,29.10
2023-02-13T06:34:27.800Z,29.20
2023-02-13T06:38:37.031Z,27.03
2023-02-13T06:42:47.012Z,31.33
2023-02-13T06:46:57.790Z,32.20
2023-02-13T06:51:07.340Z,28.27
2023-02-13T06:55:17.382Z,30.10
2023-02-13T06:59:26.613Z,28.93
2023-02-13T07:03:37.347Z,28.43
2023-02-13T07:07:47.127Z,29.27
2023-02-13T07:11:56.461Z,30.37
2023-02-13T07:16:06.242Z,29.83
2023-02-13T07:20:17.169Z,30.07
2023-02-13T07:24:26.512Z,26.90
2023-02-13T07:28:35.554Z,30.80
2023-02-13T07:32:44.783Z,30.50
2023-02-13T07:36:55.524Z,32.77
2023-02-13T07:41:05.858Z,29.63
2023-02-13T07:45:15.992Z,31.23
2023-02-13T07:49:25.184Z,30.70
2023-02-13T07:53:35.742Z,32.90
2023-02-13T07:57:44.870Z,32.13
2023-02-13T08:01:54.314Z,34.63
2023-02-13T08:06:05.219Z,32.07
2023-02-13T08:10:34.254Z,31.63
2023-02-13T08:14:43.559Z,32.73
2023-02-13T08:18:53.811Z,31.83
2023-02-13T08:23:07.289Z,32.70
2023-02-13T08:27:18.429Z,33.40
2023-02-13T08:31:27.797Z,32.10
2023-02-13T08:35:37.324Z,32.57
2023-02-13T08:39:46.762Z,33.83
2023-02-13T08:43:57.475Z,31.33
2023-02-13T08:48:07.829Z,33.43
2023-02-13T08:52:16.860Z,32.60
2023-02-13T08:56:26.164Z,33.90
2023-02-13T09:00:37.530Z,31.23
2023-02-13T09:04:46.638Z,34.27
2023-02-13T09:08:56.115Z,34.23
2023-02-13T09:13:05.240Z,33.23
2023-02-13T09:17:18.720Z,30.80
2023-02-13T09:21:27.944Z,31.90
2023-02-13T09:25:37.153Z,30.83
2023-02-13T09:29:46.482Z,31.27
2023-02-13T09:33:57.361Z,32.33
2023-02-13T09:38:06.498Z,30.73
2023-02-13T09:42:21.508Z,32.30
2023-02-13T09:46:36.005Z,29.90
2023-02-13T09:50:47.066Z,30.87
2023-02-13T09:54:56.816Z,31.67
2023-02-13T09:59:14.677Z,29.30
2023-02-13T10:03:31.176Z,30.67
2023-02-13T10:07:51.136Z,28.97
2023-02-13T10:12:19.076Z,28.47
2023-02-13T10:16:32.778Z,28.03
2023-02-13T10:20:47.757Z,26.93
2023-02-13T10:25:03.519Z,28.43
2023-02-13T10:29:52.777Z,27.93
2023-02-13T10:34:07.515Z,25.60
2023-02-13T10:38:20.698Z,26.63
2023-02-13T10:42:39.819Z,25.27
2023-02-13T10:46:59.519Z,25.80
2023-02-13T10:51:14.941Z,25.77
2023-02-13T10:56:09.039Z,25.90
2023-02-13T11:00:27.265Z,23.97
2023-02-13T11:04:36.613Z,23.50
2023-02-13T11:08:48.108Z,24.37
2023-02-13T11:12:57.691Z,23.53
2023-02-13T11:17:18.329Z,24.17
2023-02-13T11:21:39.110Z,24.90
2023-02-13T11:26:00.387Z,24.80
2023-02-13T11:30:35.050Z,24.27
2023-02-13T11:34:46.548Z,24.43
2023-02-13T11:39:03.869Z,24.63
2023-02-13T11:43:21.408Z,25.60
2023-02-13T11:47:47.332Z,24.97
2023-02-13T11:52:00.252Z,27.00
2023-02-13T11:56:13.516Z,25.50
2023-02-13T12:00:31.318Z,24.23
2023-02-13T12:04:40.698Z,26.13
2023-02-13T12:08:53.017Z,25.70
2023-02-13T12:13:21.219Z,26.57
2023-02-13T12:17:33.477Z,27.27
2023-02-13T12:22:08.117Z,27.57
2023-02-13T12:32:01.594Z,27.60
2023-02-13T12:36:21.753Z,26.23
2023-02-13T12:41:15.402Z,27.90
2023-02-13T12:45:35.711Z,24.90
2023-02-13T12:50:31.274Z,26.17
2023-02-13T12:54:52.733Z,25.20
2023-02-13T12:59:27.023Z,26.00
2023-02-13T13:03:54.074Z,23.80
2023-02-13T13:08:45.822Z,25.30
2023-02-13T13:13:04.274Z,27.80
2023-02-13T13:17:23.750Z,27.23
2023-02-13T13:21:41.345Z,27.33
2023-02-13T13:26:00.959Z,25.77
2023-02-13T13:30:20.414Z,27.83
2023-02-13T13:34:32.622Z,24.83
2023-02-13T13:38:57.808Z,25.77
2023-02-13T13:43:20.296Z,26.43
2023-02-13T13:47:42.872Z,26.47
2023-02-13T13:51:52.677Z,21.77
2023-02-13T13:56:09.035Z,20.03
2023-02-13T14:00:32.119Z,23.23
2023-02-13T14:04:44.256Z,28.00
2023-02-13T14:09:02.991Z,23.47
2023-02-13T14:13:12.235Z,23.43
2023-02-13T14:17:57.218Z,18.93
2023-02-13T14:22:33.515Z,20.80
2023-02-13T14:26:43.208Z,17.70
2023-02-13T14:30:56.725Z,23.17
2023-02-13T14:35:20.049Z,18.03
2023-02-13T14:39:35.569Z,19.33
2023-02-13T14:43:53.067Z,20.50
2023-02-13T14:48:09.852Z,19.80
2023-02-13T14:52:26.854Z,18.07
2023-02-13T14:56:40.673Z,18.67
2023-02-13T15:00:57.775Z,17.60
2023-02-13T15:05:10.137Z,20.47
2023-02-13T15:09:32.700Z,20.07
2023-02-13T15:13:43.059Z,18.63
2023-02-13T15:17:55.586Z,18.50
2023-02-13T15:22:08.859Z,18.27
2023-02-13T15:26:29.577Z,16.87
2023-02-13T15:30:52.738Z,18.10
2023-02-13T15:35:02.962Z,20.63
2023-02-13T15:39:19.420Z,17.43
2023-02-13T15:43:39.718Z,22.03
2023-02-13T15:48:13.530Z,12.03
2023-02-13T15:52:29.152Z,17.50
2023-02-13T15:56:50.671Z,13.07
2023-02-13T16:05:55.632Z,21.80
2023-02-13T16:10:35.630Z,19.00
2023-02-13T16:14:52.510Z,19.43
2023-02-13T16:19:04.362Z,14.40
2023-02-13T16:23:22.679Z,17.63
2023-02-13T16:27:39.350Z,24.53
2023-02-13T16:31:50.266Z,16.93
2023-02-13T16:36:10.547Z,21.80
2023-02-13T16:40:43.504Z,14.00
2023-02-13T16:44:53.014Z,17.93
2023-02-13T16:49:21.678Z,19.47
2023-02-13T16:53:34.989Z,18.80
2023-02-13T16:57:45.836Z,14.27
2023-02-13T17:02:55.341Z,17.83
2023-02-13T17:07:06.104Z,14.83
2023-02-13T17:11:22.816Z,18.13
2023-02-13T17:15:33.821Z,19.13
2023-02-13T17:19:43.436Z,15.03
2023-02-13T17:23:53.795Z,15.63
2023-02-13T17:28:15.111Z,12.80
2023-02-13T17:32:27.000Z,17.07
2023-02-13T17:36:36.675Z,16.53
2023-02-13T17:40:47.181Z,15.13
2023-02-13T17:45:00.238Z,16.03
2023-02-13T17:49:09.721Z,18.97
2023-02-13T17:53:23.676Z,18.20
2023-02-13T17:57:33.014Z,20.17
2023-02-13T18:01:44.366Z,15.10
2023-02-13T19:27:22.533Z,15.40
2023-02-13T19:56:05.656Z,18.00
2023-02-13T20:00:18.454Z,23.03
2023-02-13T20:09:14.217Z,20.00
2023-02-13T20:13:28.256Z,21.43
2023-02-13T20:17:52.832Z,17.50
2023-02-13T20:22:02.712Z,26.20
2023-02-13T20:26:16.179Z,14.40
2023-02-13T20:30:25.992Z,21.23
2023-02-13T20:34:58.237Z,17.27
2023-02-13T20:39:12.092Z,13.90
2023-02-13T20:43:23.330Z,11.20
2023-02-13T20:47:34.189Z,14.67
2023-02-13T20:51:46.589Z,8.83
2023-02-13T20:55:56.268Z,6.77
2023-02-13T21:00:13.057Z,7.00
2023-02-13T21:04:24.589Z,9.17
2023-02-13T21:08:35.812Z,7.00
2023-02-13T21:17:37.547Z,13.00
2023-02-13T21:26:38.186Z,12.20
2023-02-13T21:30:48.574Z,18.73
2023-02-13T21:35:31.512Z,11.77
2023-02-13T21:39:56.473Z,18.70
2023-02-13T21:44:08.652Z,16.73
2023-02-13T21:48:18.095Z,17.17
2023-02-13T21:52:34.422Z,20.70
2023-02-13T21:56:45.195Z,19.33
2023-02-13T22:00:57.266Z,17.97
2023-02-13T22:05:07.497Z,17.07
2023-02-13T22:09:19.680Z,29.50
2023-02-13T22:13:30.095Z,20.03
2023-02-13T22:17:41.737Z,14.67
2023-02-13T22:21:52.578Z,22.53
2023-02-13T22:26:03.580Z,13.73
2023-02-13T22:30:23.492Z,20.47
2023-02-13T22:34:36.483Z,17.67
2023-02-13T22:38:46.641Z,18.37
2023-02-13T22:42:55.980Z,21.07
2023-02-13T22:47:20.021Z,35.00
2023-02-13T22:51:33.080Z,24.53
2023-02-13T22:55:44.059Z,21.13
2023-02-13T22:59:53.509Z,34.60
2023-02-13T23:04:03.148Z,28.10
2023-02-13T23:08:14.255Z,22.23
2023-02-13T23:12:39.385Z,18.73
2023-02-13T23:17:06.123Z,21.37
2023-02-13T23:21:15.705Z,35.13
2023-02-13T23:25:26.849Z,18.43
2023-02-13T23:29:36.425Z,18.93
2023-02-13T23:33:45.726Z,20.83
2023-02-13T23:37:55.246Z,16.90
2023-02-13T23:42:06.367Z,22.47
2023-02-13T23:46:15.826Z,15.80
2023-02-13T23:50:25.242Z,18.73
2023-02-13T23:54:34.845Z,17.30
2023-02-13T23:58:45.706Z,25.30
